Bayard, New Mexico
Current Conditions -  °F | °C
As of 6:35 PM on Thursday 18 Dec 2014 (Local Time) from KSVC Reporting Station
Overcast Overcast  
Wind Chill: 33°   Ceiling: 1900
Heat Index: 37°   Visibility: 8mi
Dew Point: 36°   Wind: 6mph
Humidity: 93%   Direction: 280°W
Pressure: 30.13"   Gusts: NA
Location:  32.76°N, 108.13°W
Report Text: KSVC 190135Z AUTO 28005KT 8SM BKN019 OVC026 03/02 A3013 RMK AO2
Loading
Personal Weather Stations






























Interactive Weather Map New forecast layout! Learn more

10-Day Weather Forecast

Advertisements
Track Severe Weather on mobile